Time;durP1;ratioP1;P1;durP2;ratioP2;P2;SDS_P1;SDS_P2;PMS_P1;PMS_P2;Temp;Humidity;BMP_temperature;BMP_pressure;BME280_temperature;BME280_humidity;BME280_pressure;Samples;Min_cycle;Max_cycle;Signal;HPM_P1;HPM_P2
2021/01/30 00:00:15;;;;;;;8.17;5.43;;;0.80;99.90;;;;;;4999953;28;20183;-79
2021/01/30 00:02:41;;;;;;;6.23;5.60;;;0.80;99.90;;;;;;5000047;28;20179;-80
2021/01/30 00:05:07;;;;;;;7.20;5.60;;;0.80;99.90;;;;;;5001673;28;20420;-79
2021/01/30 00:07:33;;;;;;;7.70;5.73;;;0.80;99.90;;;;;;4999040;28;20380;-80
2021/01/30 00:09:59;;;;;;;9.70;6.30;;;0.80;99.90;;;;;;5001916;28;20965;-79
2021/01/30 00:12:33;;;;;;;8.40;5.20;;;0.80;99.90;;;;;;4999517;28;20176;-79
2021/01/30 00:15:00;;;;;;;9.90;6.40;;;0.80;99.90;;;;;;5000206;28;20171;-80
2021/01/30 00:17:26;;;;;;;10.70;7.53;;;0.90;99.90;;;;;;5001582;28;20890;-79
2021/01/30 00:19:51;;;;;;;8.80;6.57;;;0.90;99.90;;;;;;5001681;28;20443;-79
2021/01/30 00:22:20;;;;;;;12.40;7.20;;;0.90;99.90;;;;;;5000280;28;20180;-79
2021/01/30 00:24:48;;;;;;;10.90;6.63;;;0.90;99.90;;;;;;4999441;28;20171;-81
2021/01/30 00:27:16;;;;;;;10.07;6.67;;;0.90;99.90;;;;;;5001096;28;20484;-85
2021/01/30 00:29:42;;;;;;;9.90;6.53;;;0.90;99.90;;;;;;5003233;28;20418;-79
2021/01/30 00:32:10;;;;;;;12.37;7.33;;;0.90;99.90;;;;;;5002536;28;20433;-79
2021/01/30 00:34:37;;;;;;;9.40;7.07;;;1.00;99.90;;;;;;5005460;28;20419;-80
2021/01/30 00:37:19;;;;;;;10.13;7.83;;;1.00;99.90;;;;;;4996670;28;20817;-79
2021/01/30 00:39:46;;;;;;;10.00;7.67;;;1.00;99.90;;;;;;4996277;28;20925;-79
2021/01/30 00:42:14;;;;;;;8.80;6.40;;;1.10;99.90;;;;;;4996440;28;20427;-79
2021/01/30 00:44:40;;;;;;;15.30;8.57;;;1.10;99.90;;;;;;4996563;28;20416;-79
2021/01/30 00:47:07;;;;;;;9.57;6.90;;;1.10;99.90;;;;;;4996532;28;20777;-84
2021/01/30 00:49:33;;;;;;;13.27;8.70;;;1.10;99.90;;;;;;4996675;28;20414;-81
2021/01/30 00:51:58;;;;;;;12.30;7.83;;;1.10;99.90;;;;;;4996764;28;20450;-82
2021/01/30 00:54:24;;;;;;;11.57;7.20;;;1.20;99.90;;;;;;4995164;28;20172;-85
2021/01/30 00:56:55;;;;;;;12.53;8.10;;;1.20;99.90;;;;;;4996586;28;20194;-83
2021/01/30 00:59:21;;;;;;;11.70;7.27;;;1.20;99.90;;;;;;4996337;28;20188;-81
2021/01/30 01:01:47;;;;;;;12.10;7.37;;;1.30;99.90;;;;;;4995912;28;20455;-79
2021/01/30 01:04:12;;;;;;;10.10;6.70;;;1.30;99.90;;;;;;4994690;28;20514;-79
2021/01/30 01:06:39;;;;;;;15.53;7.97;;;1.30;99.90;;;;;;4995195;28;20415;-81
2021/01/30 01:09:06;;;;;;;14.10;9.27;;;1.40;99.90;;;;;;4995073;28;20179;-81
2021/01/30 01:11:37;;;;;;;10.87;7.43;;;1.40;99.90;;;;;;5002297;28;20781;-84
2021/01/30 01:14:04;;;;;;;14.20;8.73;;;1.40;99.90;;;;;;5004935;28;20802;-79
2021/01/30 01:16:29;;;;;;;15.00;7.90;;;1.40;99.90;;;;;;5005371;28;21005;-77
2021/01/30 01:18:55;;;;;;;11.03;7.40;;;1.40;99.90;;;;;;5002757;28;20447;-79
2021/01/30 01:21:21;;;;;;;14.17;7.63;;;1.40;99.90;;;;;;5011912;28;20184;-80
2021/01/30 01:23:47;;;;;;;13.40;7.20;;;1.30;99.90;;;;;;5014434;28;20177;-82
2021/01/30 01:26:14;;;;;;;13.73;8.00;;;1.40;99.90;;;;;;5008088;28;20219;-79
2021/01/30 01:28:40;;;;;;;12.13;7.97;;;1.40;99.90;;;;;;5014104;28;20642;-81
2021/01/30 01:31:07;;;;;;;10.67;6.50;;;1.40;99.90;;;;;;5013330;28;20923;-79
2021/01/30 01:33:33;;;;;;;12.33;7.73;;;1.40;99.90;;;;;;5011628;28;20765;-85
2021/01/30 01:35:58;;;;;;;11.30;8.63;;;1.40;99.90;;;;;;5010343;28;20423;-81
2021/01/30 01:38:25;;;;;;;10.00;6.77;;;1.40;99.90;;;;;;5007496;28;20550;-80
2021/01/30 01:40:52;;;;;;;15.67;7.50;;;1.40;99.90;;;;;;5006826;28;20200;-79
2021/01/30 01:43:21;;;;;;;12.67;7.60;;;1.40;99.90;;;;;;5014457;28;20411;-78
2021/01/30 01:46:05;;;;;;;14.87;8.30;;;1.40;99.90;;;;;;5013266;28;20505;-82
2021/01/30 01:48:33;;;;;;;11.23;7.03;;;1.50;99.90;;;;;;4994828;28;20906;-82
2021/01/30 01:51:04;;;;;;;9.73;7.87;;;1.50;99.90;;;;;;5010359;28;20509;-80
2021/01/30 01:53:40;;;;;;;9.87;7.10;;;1.50;99.90;;;;;;5012897;28;20518;-78
2021/01/30 01:56:10;;;;;;;12.30;7.40;;;1.50;99.90;;;;;;5013179;28;20449;-79
2021/01/30 01:58:40;;;;;;;12.20;7.20;;;1.60;99.90;;;;;;5013291;28;20477;-80
2021/01/30 02:01:07;;;;;;;9.47;7.40;;;1.60;99.90;;;;;;5014316;28;20931;-79
2021/01/30 02:03:33;;;;;;;6.70;5.00;;;1.60;99.90;;;;;;5014010;28;20419;-79
2021/01/30 02:06:01;;;;;;;11.90;7.10;;;1.60;99.90;;;;;;5014314;28;20425;-79
2021/01/30 02:08:28;;;;;;;12.50;6.97;;;1.60;99.90;;;;;;5012901;28;20960;-79
2021/01/30 02:10:54;;;;;;;9.17;6.73;;;1.60;99.90;;;;;;5014825;28;20434;-80
2021/01/30 02:13:44;;;;;;;8.97;5.67;;;1.60;99.90;;;;;;5014032;28;20431;-79
2021/01/30 02:16:15;;;;;;;11.50;7.50;;;1.50;99.90;;;;;;5012892;28;20794;-80
2021/01/30 02:19:18;;;;;;;8.73;6.07;;;1.50;99.90;;;;;;5013865;28;20573;-80
2021/01/30 02:21:50;;;;;;;10.43;6.77;;;1.50;99.90;;;;;;5012867;28;20779;-79
2021/01/30 02:24:54;;;;;;;10.30;7.93;;;1.60;99.90;;;;;;5009756;28;20418;-79
2021/01/30 02:27:48;;;;;;;11.27;6.43;;;1.60;99.90;;;;;;5003247;28;20514;-79
2021/01/30 02:30:25;;;;;;;12.93;6.03;;;1.60;99.90;;;;;;5004510;28;20414;-81
2021/01/30 02:33:45;;;;;;;10.23;6.80;;;1.60;99.90;;;;;;5003491;28;20412;-80
2021/01/30 02:36:31;;;;;;;8.77;6.00;;;1.70;99.90;;;;;;4971542;28;20491;-79
2021/01/30 02:39:12;;;;;;;7.40;5.30;;;1.70;99.90;;;;;;4997718;28;20456;-80
2021/01/30 02:41:43;;;;;;;9.20;5.80;;;1.80;99.90;;;;;;5003726;28;20884;-79
2021/01/30 02:44:12;;;;;;;11.07;6.60;;;1.80;99.90;;;;;;5004711;28;20408;-80
2021/01/30 02:46:43;;;;;;;10.57;7.67;;;1.80;99.90;;;;;;5002287;28;20485;-80
2021/01/30 02:49:19;;;;;;;8.03;6.00;;;1.80;99.90;;;;;;5000425;28;20431;-80
2021/01/30 02:51:59;;;;;;;10.00;6.10;;;1.80;99.90;;;;;;4997732;28;20450;-79
2021/01/30 02:54:25;;;;;;;9.63;6.63;;;1.80;99.90;;;;;;4993257;28;20419;-80
2021/01/30 02:56:55;;;;;;;8.00;5.43;;;1.80;99.90;;;;;;4997168;28;20426;-81
2021/01/30 02:59:23;;;;;;;8.17;5.30;;;1.80;99.90;;;;;;5000386;28;20463;-80
2021/01/30 03:01:49;;;;;;;10.97;6.90;;;1.90;99.90;;;;;;5003537;28;20412;-81
2021/01/30 03:04:19;;;;;;;8.50;6.40;;;1.90;99.90;;;;;;5003241;28;20465;-79
2021/01/30 03:06:56;;;;;;;10.33;6.57;;;1.80;99.90;;;;;;5000837;28;20502;-85
2021/01/30 03:09:40;;;;;;;10.10;6.47;;;1.90;99.90;;;;;;5003556;28;20416;-84
2021/01/30 03:12:06;;;;;;;8.97;6.13;;;1.90;99.90;;;;;;5000796;28;20420;-81
2021/01/30 03:14:39;;;;;;;10.97;6.20;;;1.90;99.90;;;;;;5002908;28;20416;-85
2021/01/30 03:17:05;;;;;;;10.60;6.60;;;1.90;99.90;;;;;;4999151;28;20168;-83
2021/01/30 03:19:33;;;;;;;10.20;7.27;;;1.90;99.90;;;;;;5004747;28;21093;-84
2021/01/30 03:22:11;;;;;;;9.60;7.40;;;1.90;99.90;;;;;;5002104;28;20783;-82
2021/01/30 03:24:44;;;;;;;10.13;6.20;;;1.90;99.90;;;;;;5000881;28;20507;-84
2021/01/30 03:27:23;;;;;;;12.40;7.77;;;1.90;99.90;;;;;;5004377;28;20518;-85
2021/01/30 03:29:50;;;;;;;11.73;7.93;;;1.90;99.90;;;;;;5002133;28;20416;-80
2021/01/30 03:32:18;;;;;;;9.23;6.00;;;1.90;99.90;;;;;;5001832;28;20414;-80
2021/01/30 03:34:48;;;;;;;9.03;6.43;;;1.90;99.90;;;;;;5003358;28;20425;-80
2021/01/30 03:37:14;;;;;;;11.50;7.90;;;1.90;99.90;;;;;;5002182;28;20487;-80
2021/01/30 03:39:40;;;;;;;9.90;7.03;;;2.00;99.90;;;;;;5001197;28;20513;-86
2021/01/30 03:42:06;;;;;;;11.27;8.40;;;2.00;99.90;;;;;;5001449;28;20184;-83
2021/01/30 03:44:32;;;;;;;11.73;8.37;;;1.90;99.90;;;;;;5004279;28;20579;-79
2021/01/30 03:46:58;;;;;;;9.57;6.53;;;2.00;99.90;;;;;;5004143;28;20500;-83
2021/01/30 03:49:24;;;;;;;12.80;7.80;;;2.00;99.90;;;;;;5002266;28;20588;-79
2021/01/30 03:51:50;;;;;;;13.83;9.90;;;2.00;99.90;;;;;;4997691;28;20422;-79
2021/01/30 03:54:15;;;;;;;16.30;10.60;;;2.00;99.90;;;;;;4992526;28;20207;-80
2021/01/30 03:56:46;;;;;;;12.27;8.07;;;1.90;99.90;;;;;;4992625;28;20538;-79
2021/01/30 03:59:18;;;;;;;12.30;7.57;;;1.90;99.90;;;;;;4992801;28;20261;-85
2021/01/30 04:01:43;;;;;;;13.20;8.47;;;1.90;99.90;;;;;;5006646;28;20528;-79
2021/01/30 04:04:09;;;;;;;18.27;9.37;;;1.80;99.90;;;;;;5014282;28;20454;-81
2021/01/30 04:06:35;;;;;;;15.33;10.37;;;1.80;99.90;;;;;;5015063;28;20172;-79
2021/01/30 04:09:01;;;;;;;15.60;8.90;;;1.80;99.90;;;;;;5015827;28;20480;-81
2021/01/30 04:11:29;;;;;;;20.20;8.70;;;1.80;99.90;;;;;;5015355;28;20545;-81
2021/01/30 04:13:56;;;;;;;15.80;10.20;;;1.80;99.90;;;;;;5015183;28;20432;-80
2021/01/30 04:16:25;;;;;;;14.67;8.83;;;1.90;99.90;;;;;;5016409;28;20420;-80
2021/01/30 04:18:51;;;;;;;14.07;8.60;;;1.90;99.90;;;;;;5015683;28;20425;-80
2021/01/30 04:21:17;;;;;;;13.43;8.47;;;1.90;99.90;;;;;;5014853;28;20992;-82
2021/01/30 04:23:44;;;;;;;13.97;9.53;;;1.90;99.90;;;;;;5016076;28;21008;-80
2021/01/30 04:26:10;;;;;;;12.83;8.67;;;1.90;99.90;;;;;;5016091;28;20901;-79
2021/01/30 04:28:36;;;;;;;12.97;8.37;;;1.90;99.90;;;;;;5014543;28;20486;-81
2021/01/30 04:31:01;;;;;;;14.53;8.97;;;1.90;99.90;;;;;;5016041;28;20180;-80
2021/01/30 04:33:27;;;;;;;13.37;9.20;;;1.90;99.90;;;;;;5014379;28;20216;-80
2021/01/30 04:35:59;;;;;;;14.50;8.33;;;1.90;99.90;;;;;;5013622;28;20182;-80
2021/01/30 04:38:24;;;;;;;15.57;10.80;;;1.90;99.90;;;;;;5013653;28;20641;-80
2021/01/30 04:40:58;;;;;;;12.17;8.47;;;1.90;99.90;;;;;;5014377;28;20418;-80
2021/01/30 04:43:40;;;;;;;13.33;9.33;;;1.90;99.90;;;;;;5015570;28;20190;-79
2021/01/30 04:46:26;;;;;;;9.80;7.27;;;1.80;99.90;;;;;;5015699;28;20418;-79
2021/01/30 04:49:37;;;;;;;12.37;9.00;;;1.80;99.90;;;;;;5014144;28;20545;-79
2021/01/30 04:52:35;;;;;;;14.53;8.67;;;1.80;99.90;;;;;;5014899;28;20422;-79
2021/01/30 04:55:15;;;;;;;13.07;8.10;;;1.80;99.90;;;;;;5015106;28;20421;-80
2021/01/30 04:57:55;;;;;;;12.50;8.77;;;1.80;99.90;;;;;;5014887;28;20482;-80
2021/01/30 05:00:34;;;;;;;13.60;8.57;;;1.80;99.90;;;;;;5015135;28;20804;-78
2021/01/30 05:03:20;;;;;;;14.80;8.47;;;1.80;99.90;;;;;;5014970;28;20503;-78
2021/01/30 05:05:49;;;;;;;11.17;8.20;;;1.70;99.90;;;;;;5015185;28;20784;-78
2021/01/30 05:08:32;;;;;;;13.63;8.33;;;1.70;99.90;;;;;;5013266;28;20483;-77
2021/01/30 05:11:13;;;;;;;14.77;9.00;;;1.70;99.90;;;;;;5015189;28;20404;-78
2021/01/30 05:13:43;;;;;;;13.87;8.43;;;1.60;99.90;;;;;;5015355;28;20766;-79
2021/01/30 05:16:19;;;;;;;12.30;7.70;;;1.60;99.90;;;;;;5015258;28;20412;-78
2021/01/30 05:18:57;;;;;;;13.17;8.83;;;1.60;99.90;;;;;;5014089;28;21059;-78
2021/01/30 05:21:40;;;;;;;10.77;7.80;;;1.60;99.90;;;;;;5015358;28;20553;-79
2021/01/30 05:24:08;;;;;;;11.67;8.30;;;1.60;99.90;;;;;;5013707;28;20503;-79
2021/01/30 05:26:59;;;;;;;12.57;7.97;;;1.60;99.90;;;;;;5015007;28;20936;-78
2021/01/30 05:29:41;;;;;;;16.00;8.97;;;1.60;99.90;;;;;;5015237;28;20429;-78
2021/01/30 05:32:31;;;;;;;11.90;8.50;;;1.60;99.90;;;;;;5015059;28;20449;-78
2021/01/30 05:35:03;;;;;;;14.57;8.20;;;1.60;99.90;;;;;;5014706;28;20439;-78
2021/01/30 05:37:50;;;;;;;14.60;9.40;;;1.60;99.90;;;;;;5014654;28;20419;-78
2021/01/30 05:40:34;;;;;;;14.60;8.70;;;1.60;99.90;;;;;;5014404;28;20500;-79
2021/01/30 05:43:16;;;;;;;17.10;10.07;;;1.60;99.90;;;;;;5014913;28;20535;-81
2021/01/30 05:45:57;;;;;;;16.87;10.47;;;1.60;99.90;;;;;;5014426;28;20419;-78
2021/01/30 05:48:27;;;;;;;12.47;8.40;;;1.60;99.90;;;;;;5012712;28;20471;-78
2021/01/30 05:51:28;;;;;;;19.60;10.10;;;1.50;99.90;;;;;;5012999;28;20454;-78
2021/01/30 05:53:53;;;;;;;17.63;9.63;;;1.50;99.90;;;;;;5012200;28;20427;-79
2021/01/30 05:56:19;;;;;;;15.67;10.50;;;1.50;99.90;;;;;;5012457;28;20421;-79
2021/01/30 05:58:46;;;;;;;17.93;9.83;;;1.50;99.90;;;;;;5012599;28;20173;-78
2021/01/30 06:01:30;;;;;;;16.70;9.60;;;1.40;99.90;;;;;;5014037;28;20194;-79
2021/01/30 06:03:59;;;;;;;12.50;8.80;;;1.40;99.90;;;;;;5014362;28;20908;-83
2021/01/30 06:06:32;;;;;;;16.33;9.83;;;1.40;99.90;;;;;;5012976;28;20407;-82
2021/01/30 06:09:04;;;;;;;13.80;9.47;;;1.40;99.90;;;;;;5012433;28;20470;-78
2021/01/30 06:11:49;;;;;;;14.53;9.23;;;1.40;99.90;;;;;;5014020;28;20495;-79
2021/01/30 06:14:45;;;;;;;11.60;8.43;;;1.40;99.90;;;;;;5012632;28;20410;-79
2021/01/30 06:17:35;;;;;;;16.63;9.63;;;1.40;99.90;;;;;;5004174;28;20440;-78
2021/01/30 06:20:20;;;;;;;15.07;9.50;;;1.40;99.90;;;;;;5011997;28;20778;-79
2021/01/30 06:23:06;;;;;;;17.80;10.10;;;1.30;99.90;;;;;;5012238;28;20920;-78
2021/01/30 06:25:40;;;;;;;15.67;10.13;;;1.30;99.90;;;;;;5014224;28;20415;-78
2021/01/30 06:28:27;;;;;;;17.03;12.00;;;1.30;99.90;;;;;;5013392;28;20875;-79
2021/01/30 06:30:55;;;;;;;13.53;9.37;;;1.30;99.90;;;;;;5012813;28;20435;-78
2021/01/30 06:33:28;;;;;;;16.30;11.13;;;1.30;99.90;;;;;;5014017;28;20872;-79
2021/01/30 06:36:08;;;;;;;19.00;10.80;;;1.30;99.90;;;;;;5013544;28;20414;-79
2021/01/30 06:38:40;;;;;;;15.10;10.60;;;1.30;99.90;;;;;;5012782;28;20411;-84
2021/01/30 06:41:24;;;;;;;17.07;10.93;;;1.20;99.90;;;;;;5013354;28;20999;-79
2021/01/30 06:44:04;;;;;;;16.90;11.93;;;1.20;99.90;;;;;;5012199;28;20510;-79
2021/01/30 06:46:33;;;;;;;15.73;11.10;;;1.20;99.90;;;;;;5013649;28;20530;-78
2021/01/30 06:49:16;;;;;;;18.33;10.70;;;1.20;99.90;;;;;;5012421;28;20990;-79
2021/01/30 06:51:42;;;;;;;16.70;11.00;;;1.20;99.90;;;;;;5012379;28;20418;-78
2021/01/30 06:54:19;;;;;;;19.50;12.53;;;1.20;99.90;;;;;;5011474;28;20450;-78
2021/01/30 06:56:51;;;;;;;18.53;11.27;;;1.10;99.90;;;;;;5011612;28;20494;-78
2021/01/30 06:59:27;;;;;;;18.40;10.23;;;1.10;99.90;;;;;;5011911;28;20516;-78
2021/01/30 07:01:53;;;;;;;18.40;11.80;;;0.90;99.90;;;;;;5011917;28;20849;-81
2021/01/30 07:04:43;;;;;;;18.30;12.10;;;0.80;99.90;;;;;;5011833;28;20511;-80
2021/01/30 07:07:28;;;;;;;19.70;12.70;;;0.80;99.90;;;;;;5012510;28;20560;-78
2021/01/30 07:10:05;;;;;;;20.20;13.07;;;0.80;99.90;;;;;;5012826;28;20437;-79
2021/01/30 07:12:53;;;;;;;19.03;10.67;;;0.70;99.90;;;;;;5011134;28;20493;-77
2021/01/30 07:15:26;;;;;;;19.43;12.20;;;0.60;99.90;;;;;;5011103;28;20766;-78
2021/01/30 07:18:27;;;;;;;19.73;10.83;;;0.60;99.90;;;;;;5011236;28;20422;-78
2021/01/30 07:21:14;;;;;;;21.03;12.23;;;0.50;99.90;;;;;;5005481;28;20512;-78
2021/01/30 07:24:08;;;;;;;19.73;11.13;;;0.30;99.90;;;;;;5011089;28;20512;-78
2021/01/30 07:26:53;;;;;;;18.30;12.47;;;0.30;99.90;;;;;;5011427;28;20754;-78
2021/01/30 07:29:34;;;;;;;19.50;9.97;;;0.20;99.90;;;;;;5012459;28;20817;-77
2021/01/30 07:32:32;;;;;;;19.40;11.43;;;0.30;99.90;;;;;;5011557;28;20534;-78
2021/01/30 07:35:22;;;;;;;19.80;11.33;;;0.20;99.90;;;;;;5007748;28;20473;-78
2021/01/30 07:38:01;;;;;;;17.47;10.57;;;0.20;99.90;;;;;;5011163;28;20443;-79
2021/01/30 07:40:59;;;;;;;21.30;11.63;;;0.20;99.90;;;;;;5016619;28;20479;-79
2021/01/30 07:43:32;;;;;;;16.03;10.60;;;0.20;99.90;;;;;;5015633;28;20431;-79
2021/01/30 07:46:03;;;;;;;15.73;10.73;;;0.20;99.90;;;;;;5016497;28;20413;-79
2021/01/30 07:48:38;;;;;;;19.60;11.30;;;0.30;99.90;;;;;;5016184;28;20471;-79
2021/01/30 07:51:11;;;;;;;14.20;10.37;;;0.30;99.90;;;;;;5016606;28;20419;-80
2021/01/30 07:53:38;;;;;;;16.87;9.80;;;0.40;99.90;;;;;;5016868;28;20425;-78
2021/01/30 07:56:34;;;;;;;20.60;11.67;;;0.40;99.90;;;;;;5016966;28;20903;-79
2021/01/30 07:59:25;;;;;;;18.23;10.60;;;0.60;99.90;;;;;;5012552;28;20453;-79
2021/01/30 08:02:21;;;;;;;21.57;12.67;;;0.70;99.90;;;;;;5016993;28;20410;-78
2021/01/30 08:04:52;;;;;;;19.63;11.43;;;1.10;99.90;;;;;;5016959;28;20408;-79
2021/01/30 08:07:30;;;;;;;17.10;11.20;;;1.80;99.90;;;;;;5015154;28;20453;-79
2021/01/30 08:10:19;;;;;;;15.70;9.77;;;;;;;;;;5017021;28;20420;-79
2021/01/30 08:13:04;;;;;;;12.30;7.80;;;;;;;;;;5006739;28;20459;-79
2021/01/30 08:15:35;;;;;;;11.97;8.20;;;;;;;;;;5016672;28;20418;-79
2021/01/30 08:18:04;;;;;;;13.90;8.87;;;;;;;;;;5015408;28;20422;-81
2021/01/30 08:20:36;;;;;;;12.03;7.50;;;;;;;;;;5016630;28;20423;-80
2021/01/30 08:23:07;;;;;;;10.53;8.33;;;;;;;;;;5014879;28;20476;-80
2021/01/30 08:25:42;;;;;;;11.17;8.07;;;;;;;;;;5016652;28;20499;-80
2021/01/30 08:28:30;;;;;;;10.37;7.07;;;;;;;;;;5016197;28;20490;-80
2021/01/30 08:31:00;;;;;;;9.87;7.10;;;;;;;;;;5016262;28;20405;-80
2021/01/30 08:33:26;;;;;;;8.53;6.73;;;;;;;;;;5016312;28;20424;-81
2021/01/30 08:35:56;;;;;;;7.97;6.13;;;;;;;;;;5016383;28;20898;-81
2021/01/30 08:38:22;;;;;;;9.63;7.20;;;;;;;;;;5014772;28;20469;-80
2021/01/30 08:40:55;;;;;;;9.40;6.77;;;;;;;;;;5015024;28;20415;-80
2021/01/30 08:43:28;;;;;;;10.23;7.50;;;;;;;;;;5014787;28;20424;-80
2021/01/30 08:45:54;;;;;;;8.17;6.83;;;;;;;;;;5016133;28;20446;-80
2021/01/30 08:48:20;;;;;;;11.40;7.63;;;;;;;;;;5014714;28;20474;-80
2021/01/30 08:50:50;;;;;;;9.10;6.90;;;;;;;;;;5014423;28;20420;-80
2021/01/30 08:53:22;;;;;;;10.70;7.23;;;;;;;;;;5014490;28;20470;-80
2021/01/30 08:55:51;;;;;;;8.07;6.70;;;;;;;;;;5015992;28;20427;-80
2021/01/30 08:58:35;;;;;;;9.40;6.90;;;;;;;;;;5014679;28;20421;-81
2021/01/30 09:01:03;;;;;;;7.53;6.77;;;;;;;;;;5014598;28;20442;-80
2021/01/30 09:03:41;;;;;;;8.77;6.70;;;;;;;;;;5014576;28;20420;-81
2021/01/30 09:06:08;;;;;;;9.33;7.50;;;;;;;;;;5014582;28;20414;-82
2021/01/30 09:08:41;;;;;;;7.93;6.47;;;;;;;;;;5014240;28;20484;-81
2021/01/30 09:11:43;;;;;;;8.43;7.07;;;16.10;62.50;;;;;;5014368;28;20471;-81
2021/01/30 09:14:11;;;;;;;8.67;6.90;;;15.90;63.60;;;;;;5014128;28;20505;-81
2021/01/30 09:16:58;;;;;;;7.50;6.60;;;16.80;59.30;;;;;;5014241;28;20427;-81
2021/01/30 09:19:48;;;;;;;7.57;6.77;;;17.50;56.40;;;;;;5014290;28;20424;-80
2021/01/30 09:22:35;;;;;;;6.33;5.73;;;18.10;53.50;;;;;;5014003;28;20496;-78
2021/01/30 09:25:15;;;;;;;8.00;6.27;;;;;;;;;;5015446;28;20410;-82
2021/01/30 09:27:49;;;;;;;6.90;6.17;;;;;;;;;;5015085;28;20485;-79
2021/01/30 09:30:31;;;;;;;7.83;6.30;;;;;;;;;;5015308;28;20409;-79
2021/01/30 09:32:57;;;;;;;5.90;5.13;;;;;;;;;;5013979;28;20430;-80
2021/01/30 09:35:26;;;;;;;8.13;6.77;;;;;;;;;;5013900;28;20946;-78
2021/01/30 09:37:52;;;;;;;6.83;5.50;;;;;;;;;;5014863;28;20462;-78
2021/01/30 09:40:25;;;;;;;7.40;6.70;;;;;;;;;;5015078;28;20432;-78
2021/01/30 09:42:57;;;;;;;6.70;5.50;;;;;;;;;;5015066;28;20420;-78
2021/01/30 09:45:24;;;;;;;6.10;5.50;;;;;;;;;;5015074;28;20435;-78
2021/01/30 09:47:52;;;;;;;6.50;5.80;;;;;;;;;;5014725;28;20511;-78
2021/01/30 09:50:21;;;;;;;6.90;6.20;;;;;;;;;;5014938;28;20424;-78
2021/01/30 09:53:01;;;;;;;6.80;6.03;;;;;;;;;;5014534;28;20409;-79
2021/01/30 09:55:27;;;;;;;5.80;4.50;;;;;;;;;;5014783;28;20773;-79
2021/01/30 09:57:58;;;;;;;7.70;5.30;;;;;;;;;;5014997;28;20927;-80
2021/01/30 10:00:35;;;;;;;6.67;5.97;;;;;;;;;;5014808;28;20415;-79
2021/01/30 10:03:21;;;;;;;6.57;5.83;;;;;;;;;;5014100;28;20412;-80
2021/01/30 10:05:48;;;;;;;7.37;6.87;;;;;;;;;;5014740;28;20908;-80
2021/01/30 10:08:34;;;;;;;7.13;6.43;;;;;;;;;;5012813;28;20782;-79
2021/01/30 10:11:02;;;;;;;5.87;5.13;;;;;;;;;;5013354;28;20424;-80
2021/01/30 10:13:28;;;;;;;6.50;5.37;;;;;;;;;;5007251;28;20514;-90
2021/01/30 10:15:55;;;;;;;6.03;5.40;;;;;;;;;;5014309;28;20408;-84
2021/01/30 10:18:22;;;;;;;5.77;5.17;;;;;;;;;;5012534;28;20504;-85
2021/01/30 10:20:50;;;;;;;5.90;5.30;;;;;;;;;;5012840;28;20420;-85
2021/01/30 10:23:31;;;;;;;6.07;5.50;;;;;;;;;;5013715;28;20428;-84
2021/01/30 10:26:11;;;;;;;5.73;4.90;;;22.60;33.70;;;;;;5013457;28;20420;-86
2021/01/30 10:28:44;;;;;;;6.20;5.60;;;22.60;34.30;;;;;;5012898;28;21004;-85
2021/01/30 10:31:10;;;;;;;5.43;4.73;;;22.70;33.90;;;;;;5013013;28;20760;-84
2021/01/30 10:33:39;;;;;;;5.80;5.00;;;22.50;34.00;;;;;;5013578;28;20882;-85
2021/01/30 10:36:05;;;;;;;5.53;4.93;;;22.60;34.00;;;;;;5013600;28;20417;-84
2021/01/30 10:38:33;;;;;;;4.83;3.83;;;23.00;33.70;;;;;;5013984;28;20420;-87
2021/01/30 10:41:03;;;;;;;4.80;4.27;;;23.40;33.40;;;;;;5013138;28;20414;-83
2021/01/30 10:43:31;;;;;;;4.10;3.70;;;;;;;;;;5014225;28;20413;-82
2021/01/30 10:46:14;;;;;;;4.73;4.33;;;24.10;31.90;;;;;;5012134;28;21153;-83
2021/01/30 10:48:39;;;;;;;5.37;4.87;;;24.30;31.60;;;;;;5013050;28;20871;-85
2021/01/30 10:51:09;;;;;;;5.50;5.00;;;;;;;;;;5014690;28;20444;-87
2021/01/30 10:53:37;;;;;;;5.03;4.43;;;;;;;;;;5012216;28;20421;-83
2021/01/30 10:56:22;;;;;;;5.40;4.17;;;;;;;;;;5012944;28;20410;-83
2021/01/30 10:58:52;;;;;;;5.87;4.40;;;;;;;;;;5012972;28;20485;-83
2021/01/30 11:01:18;;;;;;;4.90;4.37;;;;;;;;;;5012683;28;20965;-82
2021/01/30 11:03:55;;;;;;;5.27;4.27;;;;;;;;;;5011530;28;20946;-83
2021/01/30 11:06:29;;;;;;;7.10;5.30;;;;;;;;;;5012190;28;20902;-82
2021/01/30 11:08:56;;;;;;;4.47;3.10;;;;;;;;;;5011847;28;20473;-83
2021/01/30 11:11:31;;;;;;;7.03;4.40;;;;;;;;;;5008764;28;20498;-83
2021/01/30 11:13:59;;;;;;;4.80;4.27;;;;;;;;;;5010818;28;20417;-89
2021/01/30 11:16:34;;;;;;;5.00;3.93;;;;;;;;;;5011502;28;20434;-87
2021/01/30 11:19:00;;;;;;;8.63;5.00;;;;;;;;;;5011243;28;20424;-88
2021/01/30 11:21:31;;;;;;;5.13;4.00;;;;;;;;;;5010552;28;20481;-83
2021/01/30 11:23:59;;;;;;;5.67;4.77;;;;;;;;;;5010683;28;20440;-85
2021/01/30 11:26:31;;;;;;;5.30;4.50;;;;;;;;;;5010711;28;20913;-85
2021/01/30 11:28:57;;;;;;;4.50;4.10;;;;;;;;;;5010680;28;20478;-85
2021/01/30 11:31:24;;;;;;;4.50;3.70;;;;;;;;;;5011163;28;20428;-87
2021/01/30 11:33:58;;;;;;;6.67;4.90;;;16.80;40.20;;;;;;5012161;28;20840;-85
2021/01/30 11:36:24;;;;;;;4.00;3.60;;;17.70;39.60;;;;;;5010758;28;20428;-84
2021/01/30 11:39:03;;;;;;;7.20;4.90;;;18.50;38.30;;;;;;5010551;28;20464;-85
2021/01/30 11:41:29;;;;;;;7.23;5.33;;;19.20;37.70;;;;;;5010660;28;20845;-87
2021/01/30 11:43:54;;;;;;;5.03;4.60;;;19.90;36.80;;;;;;5012368;28;20406;-85
2021/01/30 11:46:21;;;;;;;4.60;4.10;;;20.70;35.70;;;;;;5010111;28;20188;-86
2021/01/30 11:48:47;;;;;;;4.90;4.50;;;;;;;;;;5010780;28;20212;-83
2021/01/30 11:51:20;;;;;;;4.60;3.70;;;;;;;;;;5011625;28;20945;-85
2021/01/30 11:53:46;;;;;;;5.90;4.03;;;;;;;;;;5011882;28;20813;-83
2021/01/30 11:56:12;;;;;;;4.57;3.73;;;;;;;;;;5012140;28;20505;-84
2021/01/30 11:58:38;;;;;;;3.37;3.07;;;;;;;;;;5012075;28;20406;-86
2021/01/30 12:01:04;;;;;;;4.00;3.30;;;19.80;34.90;;;;;;5010883;28;20410;-84
2021/01/30 12:03:29;;;;;;;2.80;2.50;;;19.70;35.50;;;;;;5011968;28;20420;-85
2021/01/30 12:05:56;;;;;;;3.97;3.57;;;;;;;;;;5010830;28;20191;-85
2021/01/30 12:08:22;;;;;;;3.83;2.60;;;19.20;35.10;;;;;;5011181;28;20327;-87
2021/01/30 12:10:48;;;;;;;3.77;3.47;;;;;;;;;;5009214;28;20517;-86
2021/01/30 12:13:14;;;;;;;3.80;2.73;;;;;;;;;;5012205;28;20782;-85
2021/01/30 12:15:40;;;;;;;4.87;3.43;;;17.50;36.80;;;;;;5012239;28;20529;-88
2021/01/30 12:18:10;;;;;;;4.07;3.10;;;;;;;;;;5012322;28;20514;-83
2021/01/30 12:20:36;;;;;;;3.30;3.00;;;;;;;;;;5011869;28;20174;-85
2021/01/30 12:23:02;;;;;;;5.20;2.70;;;;;;;;;;5011399;28;20446;-85
2021/01/30 12:25:28;;;;;;;6.23;3.33;;;18.80;35.90;;;;;;5013781;28;20495;-83
2021/01/30 12:27:56;;;;;;;4.83;4.23;;;18.70;36.30;;;;;;5013864;28;20476;-84
2021/01/30 12:30:23;;;;;;;4.30;3.90;;;19.40;36.20;;;;;;5014147;28;20436;-85
2021/01/30 12:32:50;;;;;;;4.30;3.60;;;20.20;34.80;;;;;;5013978;28;20425;-85
2021/01/30 12:35:16;;;;;;;6.20;2.83;;;20.90;34.20;;;;;;5013710;28;20485;-85
2021/01/30 12:37:42;;;;;;;3.40;2.80;;;21.40;33.30;;;;;;5012155;28;20428;-84
2021/01/30 12:40:09;;;;;;;8.60;2.83;;;21.50;32.50;;;;;;5014805;28;20423;-83
2021/01/30 12:42:35;;;;;;;2.87;1.90;;;21.40;31.40;;;;;;5015212;28;20169;-83
2021/01/30 12:45:01;;;;;;;3.90;3.37;;;;;;;;;;5015198;28;20447;-84
2021/01/30 12:47:28;;;;;;;4.30;3.90;;;21.50;30.50;;;;;;5015148;28;20508;-84
2021/01/30 12:49:54;;;;;;;7.17;6.47;;;21.50;31.30;;;;;;5013881;28;20428;-83
2021/01/30 12:52:19;;;;;;;7.70;6.83;;;21.00;32.40;;;;;;5013304;28;20425;-83
2021/01/30 12:54:45;;;;;;;8.50;6.53;;;20.50;33.50;;;;;;5015011;28;20175;-83
2021/01/30 12:57:10;;;;;;;9.83;8.10;;;20.30;33.40;;;;;;5014983;28;20233;-83
2021/01/30 12:59:36;;;;;;;8.17;7.00;;;20.20;33.70;;;;;;5014904;28;20205;-83
2021/01/30 13:02:02;;;;;;;8.63;7.20;;;20.20;35.00;;;;;;5014799;28;20179;-84
2021/01/30 13:04:28;;;;;;;8.20;6.27;;;20.60;35.00;;;;;;5014745;28;20173;-83
2021/01/30 13:06:54;;;;;;;7.70;6.87;;;20.90;35.00;;;;;;5013113;28;20493;-83
2021/01/30 13:09:20;;;;;;;6.63;6.03;;;21.20;34.40;;;;;;5013391;28;20267;-84
2021/01/30 13:11:47;;;;;;;7.17;6.47;;;21.50;33.50;;;;;;5014283;28;20173;-83
2021/01/30 13:14:13;;;;;;;8.00;7.33;;;21.10;32.90;;;;;;5014799;28;20427;-83
2021/01/30 13:16:39;;;;;;;6.90;6.20;;;21.00;33.50;;;;;;5013233;28;20426;-83
2021/01/30 13:19:05;;;;;;;6.50;5.90;;;;;;;;;;5014537;28;20175;-84
2021/01/30 13:21:32;;;;;;;6.93;6.23;;;;;;;;;;5014079;28;20179;-84
2021/01/30 13:23:58;;;;;;;7.90;7.13;;;;;;;;;;5014360;28;20416;-83
2021/01/30 13:26:24;;;;;;;8.40;7.17;;;;;;;;;;5013973;28;20411;-83
2021/01/30 13:28:50;;;;;;;8.43;7.37;;;;;;;;;;5014384;28;20484;-82
2021/01/30 13:31:16;;;;;;;7.97;6.73;;;;;;;;;;5012762;28;20511;-83
2021/01/30 13:33:42;;;;;;;6.23;5.33;;;;;;;;;;5014062;28;20823;-82
2021/01/30 13:36:08;;;;;;;9.20;7.07;;;;;;;;;;5012020;28;20413;-83
2021/01/30 13:38:34;;;;;;;9.23;7.43;;;;;;;;;;5009615;28;20438;-82
2021/01/30 13:41:00;;;;;;;9.67;7.10;;;;;;;;;;5013571;28;20403;-83
2021/01/30 13:43:26;;;;;;;10.70;7.27;;;;;;;;;;5012096;28;20428;-83